Thunder radar more information blitzortung!


Radar de pluja more information rain snow radar


Visita la nostra xarxa de llocs de meteo:

Template documentation
and downloads

And another site



No particular awareness of the weather is required.    There are no Weather-warnings

Pagina Historial Weather Underground text

Diari Resum Juliol 17, 2017 Unitats:  Imperial    Mètric   Tant
« Previous Dia
SegĂźent Dia »
Diari Setmana Mensual Anual Personalitzada
  Maxima: Minima: Media:
Temperatura: 88.7 °F 68.9 °F 80.4 °F
Punt de rosada: 66.4 °F 52.9 °F 58.3 °F
Humitat: 74 % 31 % 49 %
Wind Speed: 17.3 mph 0 mph 6 mph
RĂ fegues de vent: 17.3 mph - -
Vent:- - ESE
Pression baro: 30.1 in 30 in -
Precipitacions: 0 in    
Historical Graphs
 
 
Dades de taula per Juliol 17, 2017
Temps Temperatura Punt de rosada Pression baro Vent Wind Speed RĂ fegues de vent Humitat Rainfall Rate (Hourly)
00:00 71.1 °F 62.1 °F 30 in Calm   2 mph 73 % 0 in
00:02 73.8 °F 60.8 °F 30.1 in WSW 3.1 mph 3.1 mph 64 % 0 in
00:07 73.8 °F 61.3 °F 30 in WSW 2.4 mph 2.4 mph 65 % 0 in
00:10 70.9 °F 61.9 °F 30 in Calm   2 mph 73 % 0 in
00:20 70.7 °F 61.5 °F 30 in SW 1 mph 1 mph 73 % 0 in
00:30 70.9 °F 61.9 °F 30 in South 1 mph 2 mph 73 % 0 in
00:40 70.9 °F 61.9 °F 30 in ENE 1 mph 2 mph 73 % 0 in
00:50 70.7 °F 61.2 °F 30 in NE 1 mph 2 mph 72 % 0 in
01:00 70.5 °F 60.6 °F 30 in NE 2 mph 3 mph 71 % 0 in
01:10 70.2 °F 60.3 °F 30 in NNE 1 mph 3 mph 71 % 0 in
01:20 69.8 °F 60.1 °F 30 in Calm   3 mph 71 % 0 in
01:30 69.4 °F 60.1 °F 30 in NNE 1 mph 2 mph 72 % 0 in
01:40 69.1 °F 59.7 °F 30 in NE 1 mph 2 mph 72 % 0 in
01:50 69.1 °F 59.7 °F 30 in NE 1 mph 2 mph 72 % 0 in
02:00 68.9 °F 59.5 °F 30.1 in Calm   2 mph 72 % 0 in
02:10 69.1 °F 59.7 °F 30.1 in Calm   1 mph 72 % 0 in
02:20 69.1 °F 59.7 °F 30.1 in Calm   1 mph 72 % 0 in
02:30 70.2 °F 60.6 °F 30.1 in Calm     72 % 0 in
02:40 70.7 °F 60.8 °F 30.1 in WSW 1 mph   71 % 0 in
02:50 72.3 °F 62.4 °F 30.1 in NNW 2 mph 2 mph 71 % 0 in
03:00 72.9 °F 63 °F 30.1 in NNE 2 mph 3 mph 71 % 0 in
03:10 73.4 °F 63 °F 30.1 in NE 1 mph 3 mph 70 % 0 in
03:20 73.8 °F 63.3 °F 30.1 in NE 1 mph 3 mph 70 % 0 in
03:30 73.9 °F 63.1 °F 30.1 in NE 3 mph 4 mph 69 % 0 in
03:40 74.7 °F 64.2 °F 30.1 in ENE 2 mph 3 mph 70 % 0 in
03:50 74.7 °F 64.2 °F 30.1 in ENE 1 mph 3 mph 70 % 0 in
04:00 75.6 °F 64.8 °F 30.1 in East 3 mph 3 mph 69 % 0 in
04:10 74.8 °F 64.8 °F 30.1 in ESE 3 mph 4 mph 71 % 0 in
04:30 76.6 °F 65.7 °F 30.1 in ESE 3 mph 4 mph 69 % 0 in
04:40 76.8 °F 65.8 °F 30.1 in East 2 mph 3 mph 69 % 0 in
04:50 77 °F 65.1 °F 30.1 in ESE 2 mph 4 mph 67 % 0 in
05:00 78.6 °F 66.4 °F 30.1 in SE 3 mph 5 mph 66 % 0 in
05:10 79 °F 65.3 °F 30.1 in ESE 5 mph 5 mph 63 % 0 in
05:20 79 °F 64.8 °F 30.1 in East 3 mph 4 mph 62 % 0 in
05:30 79.3 °F 65.1 °F 30 in East 1 mph 4 mph 62 % 0 in
05:40 81.1 °F 65.8 °F 30.1 in East 2 mph 5 mph 60 % 0 in
10:52 81 °F 64.2 °F 30.1 in East 4 mph 4 mph 57 % 0 in
10:58 81.3 °F 65.1 °F 30.1 in ENE 5.8 mph 5.8 mph 58 % 0 in
11:03 81.1 °F 64 °F 30.1 in SSW 5.8 mph 5.8 mph 56 % 0 in
11:08 81.7 °F 64.6 °F 30.1 in ENE 3.8 mph 3.8 mph 56 % 0 in
11:13 82 °F 63.9 °F 30.1 in ENE 8.5 mph 8.5 mph 54 % 0 in
11:18 81.9 °F 63.7 °F 30.1 in East 3.5 mph 3.5 mph 54 % 0 in
11:23 82.4 °F 63.5 °F 30.1 in NE 5.8 mph 5.8 mph 53 % 0 in
11:28 82.8 °F 63.9 °F 30.1 in East 6.9 mph 6.9 mph 53 % 0 in
11:29 82.8 °F 63.9 °F 30.1 in ENE 6.9 mph 6.9 mph 53 % 0 in
11:34 82.8 °F 63.3 °F 30.1 in ENE 6.9 mph 6.9 mph 52 % 0 in
11:39 82.9 °F 63.5 °F 30.1 in ENE 7.6 mph 7.6 mph 52 % 0 in
11:44 82.6 °F 63.1 °F 30.1 in SE 5.8 mph 5.8 mph 52 % 0 in
11:49 83.1 °F 63.1 °F 30.1 in ESE 8.1 mph 8.1 mph 51 % 0 in
11:54 83.7 °F 64.2 °F 30.1 in North 6.9 mph 6.9 mph 52 % 0 in
11:59 83.8 °F 63.1 °F 30.1 in ESE 8.1 mph 8.1 mph 50 % 0 in
12:04 83.8 °F 63.9 °F 30.1 in ENE 9.2 mph 9.2 mph 51 % 0 in
12:09 84.4 °F 63.1 °F 30.1 in East 5.8 mph 5.8 mph 49 % 0 in
12:14 84.2 °F 61.9 °F 30.1 in ENE 10.4 mph 10.4 mph 47 % 0 in
12:16 84.4 °F 60.6 °F 30.1 in ESE 10.4 mph 10.4 mph 45 % 0 in
12:21 84.7 °F 59.7 °F 30.1 in SSE 11.5 mph 11.5 mph 43 % 0 in
12:26 85.8 °F 57.9 °F 30.1 in East 5.9 mph 5.9 mph 39 % 0 in
12:31 85.6 °F 58.5 °F 30.1 in SE 9.8 mph 9.8 mph 40 % 0 in
12:36 86 °F 58.8 °F 30.1 in NE 9.2 mph 9.2 mph 40 % 0 in
12:41 86 °F 57.4 °F 30 in ENE 10.4 mph 10.4 mph 38 % 0 in
12:46 85.8 °F 56.5 °F 30 in ESE 8.1 mph 8.1 mph 37 % 0 in
12:51 85.3 °F 56.1 °F 30.1 in ESE 5.8 mph 5.8 mph 37 % 0 in
12:56 85.1 °F 55.9 °F 30.1 in East 13.8 mph 13.8 mph 37 % 0 in
13:01 85.8 °F 56.5 °F 30.1 in ENE 9.2 mph 9.2 mph 37 % 0 in
13:06 85.6 °F 55.6 °F 30.1 in ESE 12.7 mph 12.7 mph 36 % 0 in
13:11 85.6 °F 55.6 °F 30.1 in ESE 9.2 mph 9.2 mph 36 % 0 in
13:16 85.3 °F 54.5 °F 30.1 in ESE 15 mph 15 mph 35 % 0 in
13:21 85.5 °F 54.7 °F 30.1 in East 9 mph 15 mph 35 % 0 in
13:26 86 °F 54.3 °F 30.1 in ESE 9.2 mph 9.2 mph 34 % 0 in
13:32 85.5 °F 54.7 °F 30.1 in SSE 9.2 mph 9.2 mph 35 % 0 in
13:37 85.6 °F 54.9 °F 30.1 in ESE 13 mph 13 mph 35 % 0 in
13:42 85.8 °F 55.8 °F 30.1 in NNE 12.7 mph 12.7 mph 36 % 0 in
13:47 85.6 °F 55.6 °F 30.1 in SE 15.9 mph 15.9 mph 36 % 0 in
13:52 85.6 °F 55.6 °F 30.1 in SE 16.1 mph 16.1 mph 36 % 0 in
13:57 85.3 °F 56.1 °F 30.1 in ESE 12.8 mph 12.8 mph 37 % 0 in
14:02 85.3 °F 56.1 °F 30.1 in ENE 12.7 mph 12.7 mph 37 % 0 in
14:07 85.3 °F 56.8 °F 30.1 in ESE 12.7 mph 12.7 mph 38 % 0 in
14:12 85.8 °F 57.4 °F 30.1 in ESE 13.8 mph 13.8 mph 38 % 0 in
14:17 85.6 °F 57 °F 30.1 in SE 10.5 mph 10.5 mph 38 % 0 in
14:22 85.6 °F 57 °F 30.1 in ESE 12.7 mph 12.7 mph 38 % 0 in
14:27 85.3 °F 56.8 °F 30.1 in SSE 12.7 mph 12.7 mph 38 % 0 in
14:32 85.6 °F 57 °F 30.1 in ENE 12.7 mph 12.7 mph 38 % 0 in
14:37 86.2 °F 56.8 °F 30 in ESE 10.4 mph 10.4 mph 37 % 0 in
14:42 86.4 °F 56.3 °F 30 in SSW 8.1 mph 8.1 mph 36 % 0 in
14:47 86.9 °F 56.7 °F 30 in ESE 9.2 mph 9.2 mph 36 % 0 in
14:52 86.7 °F 55.8 °F 30 in SE 6.9 mph 6.9 mph 35 % 0 in
14:57 86.4 °F 54.7 °F 30 in ESE 9.2 mph 9.2 mph 34 % 0 in
15:02 86.5 °F 54 °F 30 in East 9.7 mph 9.7 mph 33 % 0 in
15:07 86.2 °F 53.8 °F 30 in ESE 10.4 mph 10.4 mph 33 % 0 in
15:08 86.2 °F 53.8 °F 30 in ESE 10.4 mph 10.4 mph 33 % 0 in
15:13 87.3 °F 54.7 °F 30 in ENE 10.4 mph 10.4 mph 33 % 0 in
15:18 86.9 °F 54.3 °F 30 in ESE 13.8 mph 13.8 mph 33 % 0 in
15:23 87.1 °F 54.5 °F 30 in ENE 8.1 mph 8.1 mph 33 % 0 in
15:28 87.1 °F 54.5 °F 30 in ESE 10.4 mph 10.4 mph 33 % 0 in
15:33 86.4 °F 54 °F 30 in ESE 17.3 mph 17.3 mph 33 % 0 in
15:34 86.4 °F 54 °F 30 in East 17.3 mph 17.3 mph 33 % 0 in
15:39 86.7 °F 54.1 °F 30 in NNE 12.7 mph 12.7 mph 33 % 0 in
15:44 87.1 °F 54.5 °F 30 in East 10.4 mph 10.4 mph 33 % 0 in
15:49 87.4 °F 54.9 °F 30 in ESE 12.7 mph 12.7 mph 33 % 0 in
15:54 87.8 °F 54.3 °F 30 in ESE 10.4 mph 10.4 mph 32 % 0 in
15:59 88.3 °F 55.6 °F 30 in ESE 8.5 mph 8.5 mph 33 % 0 in
16:04 87.3 °F 53.8 °F 30 in East 10.5 mph 10.5 mph 32 % 0 in
16:09 86.9 °F 54.3 °F 30 in SSE 9.2 mph 9.2 mph 33 % 0 in
16:14 87.8 °F 54.3 °F 30 in ESE 5.8 mph 5.8 mph 32 % 0 in
16:19 87.8 °F 54.3 °F 30 in East 6.9 mph 6.9 mph 32 % 0 in
16:24 88 °F 53.6 °F 30 in ESE 6.9 mph 6.9 mph 31 % 0 in
16:29 88.7 °F 54.1 °F 30 in ESE 8.1 mph 8.1 mph 31 % 0 in
16:34 87.4 °F 54 °F 30 in SE 6.9 mph 6.9 mph 32 % 0 in
16:40 87.3 °F 54 °F 30 in ESE 7 mph 13 mph 32 % 0 in
16:45 87.8 °F 54.1 °F 30 in ESE 6 mph 8 mph 32 % 0 in
16:50 88.2 °F 54.7 °F 30 in ESE 7.8 mph 7.8 mph 32 % 0 in
16:55 86.7 °F 54.1 °F 30 in ENE 9.2 mph 9.2 mph 33 % 0 in
17:00 87.1 °F 54.5 °F 30 in SSE 10.4 mph 10.4 mph 33 % 0 in
17:05 86.5 °F 54 °F 30 in East 13 mph 13 mph 33 % 0 in
17:10 86.4 °F 54 °F 30 in ESE 10.4 mph 10.4 mph 33 % 0 in
17:15 86.9 °F 53.4 °F 30 in ESE 10.5 mph 10.5 mph 32 % 0 in
17:20 86.5 °F 54.1 °F 30 in ESE 9 mph 10 mph 33 % 0 in
17:25 86.2 °F 53.8 °F 30 in East 9.2 mph 9.2 mph 33 % 0 in
17:30 86 °F 53.4 °F 30 in ESE 11.5 mph 11.5 mph 33 % 0 in
17:35 85.6 °F 53.2 °F 30 in East 8 mph 12 mph 33 % 0 in
17:40 86 °F 53.4 °F 30 in ESE 7 mph 12 mph 33 % 0 in
17:45 85.6 °F 54 °F 30 in ESE 12.7 mph 12.7 mph 34 % 0 in
17:50 85.6 °F 54 °F 30 in ENE 9.8 mph 9.8 mph 34 % 0 in
17:55 85.5 °F 54.7 °F 30 in NE 10.4 mph 10.4 mph 35 % 0 in
18:00 85.3 °F 54.5 °F 30 in SE 10.4 mph 10.4 mph 35 % 0 in
18:05 85.1 °F 54.3 °F 30 in ESE 10.4 mph 10.4 mph 35 % 0 in
18:10 84.9 °F 54.1 °F 30 in ESE 8 mph 10 mph 35 % 0 in
18:15 85.1 °F 54.3 °F 30 in East 6 mph 10 mph 35 % 0 in
18:20 84.9 °F 54.1 °F 30 in ESE 6 mph 11 mph 35 % 0 in
18:25 84.9 °F 54.1 °F 30 in ESE 8 mph 12 mph 35 % 0 in
18:30 84.4 °F 53.8 °F 30 in East 10.4 mph 10.4 mph 35 % 0 in
18:35 84.2 °F 53.6 °F 30 in ESE 8.1 mph 8.1 mph 35 % 0 in
18:40 84 °F 54.1 °F 30 in SE 8.1 mph 8.1 mph 36 % 0 in
18:45 84 °F 54.1 °F 30 in East 9.2 mph 9.2 mph 36 % 0 in
18:50 84.2 °F 53.6 °F 30 in SE 5.9 mph 5.9 mph 35 % 0 in
18:55 83.7 °F 53.1 °F 30 in ESE 7 mph 10 mph 35 % 0 in
19:00 83.5 °F 53.8 °F 30 in ESE 6 mph 10 mph 36 % 0 in
19:05 83.3 °F 52.9 °F 30 in ESE 6 mph 10 mph 35 % 0 in
19:10 83.3 °F 52.9 °F 30 in ESE 6 mph 8 mph 35 % 0 in
19:15 83.7 °F 53.1 °F 30 in ESE 5 mph 8 mph 35 % 0 in
19:20 83.8 °F 53.2 °F 30 in ESE 5.4 mph 5.4 mph 35 % 0 in
19:25 83.5 °F 52.9 °F 30 in ESE 6.9 mph 6.9 mph 35 % 0 in
19:30 83.1 °F 53.4 °F 30 in SSE 8.1 mph 8.1 mph 36 % 0 in
19:35 82.9 °F 53.2 °F 30 in ENE 10.4 mph 10.4 mph 36 % 0 in
19:40 82.9 °F 54 °F 30 in ESE 5.9 mph 5.9 mph 37 % 0 in
19:45 82.8 °F 53.8 °F 30 in ESE 6.9 mph 6.9 mph 37 % 0 in
19:50 82.9 °F 54 °F 30 in South 5.8 mph 5.8 mph 37 % 0 in
19:55 82.9 °F 53.2 °F 30 in South 4.6 mph 4.6 mph 36 % 0 in
20:00 82.8 °F 53.8 °F 30 in SSW 2.3 mph 4 mph 37 % 0 in
20:05 82 °F 54 °F 30 in SE 7 mph 7 mph 38 % 0 in
20:10 81.5 °F 53.4 °F 30 in East 5.8 mph 5.8 mph 38 % 0 in
20:15 81.1 °F 53.8 °F 30 in East 6.4 mph 6.4 mph 39 % 0 in
20:20 80.8 °F 54.1 °F 30 in ESE 6.2 mph 6.2 mph 40 % 0 in
20:25 80.4 °F 55.2 °F 30 in ESE 6.9 mph 6.9 mph 42 % 0 in
20:30 80.1 °F 55.6 °F 30 in East 6.9 mph 6.9 mph 43 % 0 in
20:35 79.7 °F 55.2 °F 30 in ESE 5.8 mph 5.8 mph 43 % 0 in
20:40 79.5 °F 56.3 °F 30 in ESE 3 mph 7 mph 45 % 0 in
20:45 79.2 °F 56.7 °F 30 in SE 5.8 mph 5.8 mph 46 % 0 in
20:50 78.8 °F 57.4 °F 30 in ESE 5.8 mph 5.8 mph 48 % 0 in
20:55 78.4 °F 57.7 °F 30 in East 8.1 mph 8.1 mph 49 % 0 in
21:00 78.3 °F 58.1 °F 30 in ENE 5.8 mph 5.8 mph 50 % 0 in
21:05 78.1 °F 58.5 °F 30 in ENE 5.8 mph 5.8 mph 51 % 0 in
21:10 77.9 °F 58.3 °F 30 in ESE 3.5 mph 3.5 mph 51 % 0 in
21:15 77.7 °F 58.6 °F 30 in ESE 2.6 mph 2.6 mph 52 % 0 in
21:20 77.5 °F 59.2 °F 30 in ENE 3.3 mph 3.6 mph 53 % 0 in
21:25 77.4 °F 58.8 °F 30 in East 4.6 mph 4.6 mph 53 % 0 in
21:30 77.2 °F 58.6 °F 30 in East 2 mph 5 mph 53 % 0 in
21:35 77 °F 59.2 °F 30 in ESE 3.5 mph 3.5 mph 54 % 0 in
21:40 76.8 °F 59.9 °F 30 in ENE 4.6 mph 4.6 mph 56 % 0 in
21:45 76.5 °F 60.6 °F 30 in East 4.6 mph 4.6 mph 58 % 0 in
21:50 71.6 °F 61.7 °F 30 in Calm     71 % 0 in
21:51 76.5 °F 61.2 °F 30 in ESE 4.6 mph 4.6 mph 59 % 0 in
21:56 76.3 °F 60.4 °F 30 in ESE 3.5 mph 3.5 mph 58 % 0 in
22:00 71.4 °F 61.9 °F 30 in Calm     72 % 0 in
22:01 76.3 °F 61.3 °F 30 in ENE 3.6 mph 3.6 mph 60 % 0 in
22:06 76.1 °F 61.2 °F 30 in ESE 3.6 mph 3.6 mph 60 % 0 in
22:10 71.4 °F 61.9 °F 30 in Calm     72 % 0 in
22:11 75.9 °F 61 °F 30 in East 4.6 mph 4.6 mph 60 % 0 in
22:17 75.9 °F 61 °F 30 in SE 4.6 mph 4.6 mph 60 % 0 in
22:20 71.4 °F 61.9 °F 30 in Calm     72 % 0 in
22:22 75.7 °F 61.3 °F 30 in SE 4.6 mph 4.6 mph 61 % 0 in
22:27 75.6 °F 60.6 °F 30 in SW 2.4 mph   60 % 0 in
22:30 71.2 °F 61.7 °F 30 in Calm     72 % 0 in
22:33 75.6 °F 60.3 °F 30 in SW 1.4 mph   59 % 0 in
22:37 75.4 °F 60.4 °F 30.1 in SW 1.2 mph   60 % 0 in
22:40 71.1 °F 62.1 °F 30 in Calm     73 % 0 in
22:43 75.2 °F 60.4 °F 30.1 in Calm     60 % 0 in
22:47 75.2 °F 60.4 °F 30.1 in Calm     60 % 0 in
22:50 71.1 °F 62.1 °F 30 in Calm     73 % 0 in
22:53 75.2 °F 60.8 °F 30 in ENE 2.3 mph 2.3 mph 61 % 0 in
22:58 75 °F 61.2 °F 30 in WNW 1.2 mph   62 % 0 in
23:00 70.7 °F 61.5 °F 30 in Calm     73 % 0 in
23:03 75 °F 61.2 °F 30 in NE 1.4 mph 1.4 mph 62 % 0 in
23:08 75 °F 61.2 °F 30 in NNE 1.2 mph 1.4 mph 62 % 0 in
23:10 70.7 °F 61.5 °F 30 in Calm   1 mph 73 % 0 in
23:13 75 °F 61.5 °F 30 in NE 2.3 mph 2.3 mph 63 % 0 in
23:18 74.8 °F 61.3 °F 30 in Calm     63 % 0 in
23:20 70.5 °F 61.9 °F 30 in Calm     74 % 0 in
23:23 74.8 °F 61.3 °F 30 in NE 2.3 mph 2.3 mph 63 % 0 in
23:28 74.8 °F 61.3 °F 30 in NNE 1.2 mph 1.2 mph 63 % 0 in
23:30 70.3 °F 61.7 °F 30 in Calm     74 % 0 in
23:33 74.7 °F 61.2 °F 30 in NNE 2.3 mph 2.3 mph 63 % 0 in
23:38 74.7 °F 61.2 °F 30 in NNE 2.3 mph   63 % 0 in
23:40 70.2 °F 61.5 °F 30 in Calm     74 % 0 in
23:44 74.5 °F 61.2 °F 30 in NNE 1.2 mph   63 % 0 in
23:49 74.3 °F 61 °F 30 in NNE 2.4 mph 2.4 mph 63 % 0 in
23:50 69.8 °F 61.2 °F 30 in Calm     74 % 0 in
23:54 74.1 °F 61.2 °F 30 in ENE 2.3 mph 2.3 mph 64 % 0 in
23:59 74.1 °F 61.2 °F 30 in NNE 2.3 mph 2.3 mph 64 % 0 in
Meteo Sesrovires
Elogis d' Weather Underground - 3.5 mb

Guio original per  Jim McMurry - jmcmurry@mwt.net Adaptat per a la plantilla per  Wim van der Kuil - Leuven-Template.eu

Trobareu la nostra informacio del temps tambe a:

Weather Underground

AWEKAS